Time;durP1;ratioP1;P1;durP2;ratioP2;P2;SDS_P1;SDS_P2;PMS_P1;PMS_P2;Temp;Humidity;BMP_temperature;BMP_pressure;BME280_temperature;BME280_humidity;BME280_pressure;Samples;Min_cycle;Max_cycle;Signal;HPM_P1;HPM_P2
2021/09/02 00:00:12;;;;;;;18.10;6.28;;;;;;;;;;5055768;28;20036;-76
2021/09/02 00:02:37;;;;;;;16.88;6.88;;;;;;;;;;5055948;28;20021;-75
2021/09/02 00:05:03;;;;;;;14.52;6.70;;;;;;;;;;5055963;28;20083;-76
2021/09/02 00:07:28;;;;;;;14.00;6.65;;;;;;;;;;5055441;28;20060;-75
2021/09/02 00:09:53;;;;;;;16.25;6.32;;;;;;;;;;5054433;28;20087;-76
2021/09/02 00:12:19;;;;;;;14.63;5.78;;;;;;;;;;5055183;28;20063;-76
2021/09/02 00:14:44;;;;;;;18.38;6.10;;;;;;;;;;5055181;28;20469;-75
2021/09/02 00:17:09;;;;;;;20.50;6.68;;;;;;;;;;5054757;28;20040;-75
2021/09/02 00:19:36;;;;;;;24.00;6.70;;;;;;;;;;5055244;28;20044;-76
2021/09/02 00:22:01;;;;;;;22.63;7.03;;;;;;;;;;5055117;28;20477;-75
2021/09/02 00:24:26;;;;;;;20.23;5.80;;;;;;;;;;5055239;28;20017;-75
2021/09/02 00:26:52;;;;;;;16.55;5.70;;;;;;;;;;5055240;28;20037;-75
2021/09/02 00:29:17;;;;;;;20.08;6.35;;;;;;;;;;5055108;28;20090;-76
2021/09/02 00:31:42;;;;;;;16.58;6.03;;;;;;;;;;5055002;28;20138;-75
2021/09/02 00:34:08;;;;;;;16.85;6.72;;;;;;;;;;5055042;28;20029;-75
2021/09/02 00:36:33;;;;;;;21.25;6.28;;;;;;;;;;5055072;28;20127;-75
2021/09/02 00:38:58;;;;;;;18.17;6.00;;;;;;;;;;5055057;28;20021;-75
2021/09/02 00:41:23;;;;;;;13.10;6.15;;;;;;;;;;5055091;28;20039;-75
2021/09/02 00:43:49;;;;;;;19.48;6.38;;;;;;;;;;5054607;28;20028;-75
2021/09/02 00:46:15;;;;;;;18.63;6.30;;;;;;;;;;5054916;28;20107;-75
2021/09/02 00:48:49;;;;;;;17.80;7.20;;;;;;;;;;5054826;28;20033;-75
2021/09/02 00:51:16;;;;;;;17.40;7.25;;;;;;;;;;5055025;28;20031;-75
2021/09/02 00:53:42;;;;;;;16.25;6.70;;;;;;;;;;5054873;28;20033;-75
2021/09/02 00:56:07;;;;;;;15.55;5.45;;;;;;;;;;5054565;28;20025;-75
2021/09/02 00:58:32;;;;;;;22.60;6.07;;;;;;;;;;5054682;28;20104;-75
2021/09/02 01:00:57;;;;;;;16.20;6.28;;;;;;;;;;5054314;28;20103;-75
2021/09/02 01:03:23;;;;;;;21.77;6.75;;;;;;;;;;5054248;28;20040;-75
2021/09/02 01:05:50;;;;;;;12.48;5.93;;;;;;;;;;5054792;28;20021;-75
2021/09/02 01:08:16;;;;;;;18.50;6.28;;;;;;;;;;5054403;28;20052;-75
2021/09/02 01:10:41;;;;;;;15.80;6.40;;;;;;;;;;5036514;28;20480;-75
2021/09/02 01:13:06;;;;;;;16.45;7.00;;;;;;;;;;5054516;28;20020;-75
2021/09/02 01:15:32;;;;;;;17.58;6.57;;;;;;;;;;5054305;28;20115;-76
2021/09/02 01:17:58;;;;;;;15.45;6.10;;;;;;;;;;5054251;28;20393;-75
2021/09/02 01:20:24;;;;;;;17.92;7.63;;;;;;;;;;5054128;28;20479;-75
2021/09/02 01:22:51;;;;;;;18.23;6.70;;;;;;;;;;5054335;28;20420;-75
2021/09/02 01:25:18;;;;;;;19.02;6.47;;;;;;;;;;5054194;28;20078;-76
2021/09/02 01:27:45;;;;;;;17.25;7.25;;;;;;;;;;5054043;28;20031;-76
2021/09/02 01:30:12;;;;;;;17.05;6.57;;;;;;;;;;5053392;28;20078;-76
2021/09/02 01:32:38;;;;;;;13.25;5.88;;;;;;;;;;5053861;28;20072;-75
2021/09/02 01:35:05;;;;;;;19.38;6.78;;;;;;;;;;5053723;28;20052;-76
2021/09/02 01:37:43;;;;;;;17.85;6.82;;;;;;;;;;5053903;28;20032;-75
2021/09/02 01:40:15;;;;;;;15.27;6.40;;;;;;;;;;5053309;28;20049;-75
2021/09/02 01:42:41;;;;;;;17.63;6.25;;;;;;;;;;5053190;28;20028;-75
2021/09/02 01:45:06;;;;;;;15.32;6.70;;;;;;;;;;5053799;28;20473;-75
2021/09/02 01:47:32;;;;;;;14.43;6.45;;;;;;;;;;5035977;28;20029;-75
2021/09/02 01:50:03;;;;;;;16.17;6.20;;;;;;;;;;5053720;28;20033;-75
2021/09/02 01:52:28;;;;;;;23.60;5.93;;;;;;;;;;5053602;28;20033;-75
2021/09/02 01:54:54;;;;;;;20.17;6.60;;;;;;;;;;5053594;28;20100;-75
2021/09/02 01:57:19;;;;;;;19.48;6.45;;;;;;;;;;5053289;28;20049;-75
2021/09/02 01:59:45;;;;;;;15.15;6.35;;;;;;;;;;5053272;28;20028;-75
2021/09/02 02:02:10;;;;;;;17.92;6.68;;;;;;;;;;5053249;28;20400;-75
2021/09/02 02:04:35;;;;;;;15.45;6.68;;;;;;;;;;5053088;28;20037;-75
2021/09/02 02:07:00;;;;;;;17.88;6.50;;;;;;;;;;5053726;28;20037;-75
2021/09/02 02:09:26;;;;;;;18.88;7.57;;;;;;;;;;5035405;28;20374;-76
2021/09/02 02:11:51;;;;;;;13.88;6.72;;;;;;;;;;5053389;28;20489;-75
2021/09/02 02:14:17;;;;;;;14.95;7.82;;;;;;;;;;5053298;28;20465;-76
2021/09/02 02:16:42;;;;;;;14.15;6.63;;;;;;;;;;5053241;28;20429;-75
2021/09/02 02:19:07;;;;;;;13.60;6.40;;;;;;;;;;5053011;28;20178;-76
2021/09/02 02:21:32;;;;;;;18.98;7.72;;;;;;;;;;5053294;28;20033;-75
2021/09/02 02:23:58;;;;;;;17.30;8.27;;;;;;;;;;5053367;28;20421;-75
2021/09/02 02:26:23;;;;;;;18.27;6.95;;;;;;;;;;5053191;28;20446;-75
2021/09/02 02:28:48;;;;;;;17.23;7.88;;;;;;;;;;5053250;28;20033;-76
2021/09/02 02:31:13;;;;;;;17.05;7.57;;;;;;;;;;5053184;28;20393;-75
2021/09/02 02:33:39;;;;;;;23.38;7.57;;;;;;;;;;5052848;28;20025;-76
2021/09/02 02:36:04;;;;;;;13.25;7.03;;;;;;;;;;5053062;28;20036;-76
2021/09/02 02:38:29;;;;;;;21.75;8.60;;;;;;;;;;5053150;28;20100;-75
2021/09/02 02:40:55;;;;;;;19.10;8.18;;;;;;;;;;5053060;28;20398;-75
2021/09/02 02:43:20;;;;;;;16.45;8.80;;;;;;;;;;5053057;28;20119;-75
2021/09/02 02:45:45;;;;;;;17.40;7.75;;;;;;;;;;5053016;28;20071;-75
2021/09/02 02:48:11;;;;;;;28.73;9.07;;;;;;;;;;5052700;28;20031;-75
2021/09/02 02:50:36;;;;;;;20.38;7.65;;;;;;;;;;5052962;28;20033;-75
2021/09/02 02:53:01;;;;;;;20.70;8.50;;;;;;;;;;5052950;28;20032;-75
2021/09/02 02:55:26;;;;;;;24.02;8.40;;;;;;;;;;5056828;28;20033;-75
2021/09/02 02:57:53;;;;;;;18.73;8.48;;;;;;;;;;5056845;28;20511;-74
2021/09/02 03:00:19;;;;;;;26.25;9.75;;;;;;;;;;5056843;28;20021;-75
2021/09/02 03:02:44;;;;;;;21.63;9.18;;;;;;;;;;5056743;28;20036;-75
2021/09/02 03:05:09;;;;;;;19.30;8.85;;;;;;;;;;5056800;28;20039;-75
2021/09/02 03:07:35;;;;;;;14.70;7.80;;;;;;;;;;5053684;28;20432;-76
2021/09/02 03:10:01;;;;;;;23.83;8.88;;;;;;;;;;5055130;28;20450;-75
2021/09/02 03:12:26;;;;;;;24.58;10.82;;;;;;;;;;5056390;28;20107;-76
2021/09/02 03:14:51;;;;;;;19.80;8.75;;;;;;;;;;5055809;28;20100;-75
2021/09/02 03:17:16;;;;;;;16.33;8.90;;;;;;;;;;5056799;28;20037;-75
2021/09/02 03:19:42;;;;;;;22.35;9.18;;;;;;;;;;5056814;28;20061;-75
2021/09/02 03:22:07;;;;;;;18.38;8.82;;;;;;;;;;5056475;28;20100;-75
2021/09/02 03:24:32;;;;;;;17.70;9.25;;;;;;;;;;5056411;28;20028;-75
2021/09/02 03:26:57;;;;;;;27.00;10.40;;;;;;;;;;5056360;28;20041;-75
2021/09/02 03:29:23;;;;;;;19.30;10.05;;;;;;;;;;5056309;28;20025;-75
2021/09/02 03:31:48;;;;;;;19.13;9.00;;;;;;;;;;5056238;28;20128;-75
2021/09/02 03:34:13;;;;;;;17.63;8.95;;;;;;;;;;5056182;28;20086;-75
2021/09/02 03:36:38;;;;;;;19.30;9.77;;;;;;;;;;5055869;28;20025;-75
2021/09/02 03:39:04;;;;;;;23.52;8.43;;;;;;;;;;5056101;28;20079;-76
2021/09/02 03:41:29;;;;;;;22.83;10.07;;;;;;;;;;5056109;28;20501;-75
2021/09/02 03:43:54;;;;;;;19.80;8.77;;;;;;;;;;5055707;28;20046;-76
2021/09/02 03:46:19;;;;;;;16.48;9.13;;;;;;;;;;5056042;28;20033;-75
2021/09/02 03:48:45;;;;;;;16.67;8.32;;;;;;;;;;5055982;28;20033;-75
2021/09/02 03:51:10;;;;;;;19.92;9.02;;;;;;;;;;5055540;28;20024;-76
2021/09/02 03:53:35;;;;;;;17.33;8.80;;;;;;;;;;5055695;28;20043;-75
2021/09/02 03:56:00;;;;;;;19.10;8.35;;;;;;;;;;5055829;28;20029;-75
2021/09/02 03:58:26;;;;;;;20.40;9.00;;;;;;;;;;5055728;28;20523;-76
2021/09/02 04:00:51;;;;;;;21.50;8.60;;;;;;;;;;5055746;28;20031;-76
2021/09/02 04:03:16;;;;;;;24.92;8.98;;;;;;;;;;5055760;28;20115;-75
2021/09/02 04:05:42;;;;;;;15.60;8.35;;;;;;;;;;5055184;28;20450;-76
2021/09/02 04:08:07;;;;;;;15.00;7.25;;;;;;;;;;5055617;28;20035;-76
2021/09/02 04:10:32;;;;;;;19.65;6.90;;;;;;;;;;5055534;28;20029;-75
2021/09/02 04:12:57;;;;;;;13.13;6.88;;;;;;;;;;5055650;28;20432;-74
2021/09/02 04:15:23;;;;;;;18.35;7.43;;;;;;;;;;5055407;28;20025;-75
2021/09/02 04:17:49;;;;;;;15.00;7.85;;;;;;;;;;5055065;28;20170;-75
2021/09/02 04:20:14;;;;;;;13.85;6.53;;;;;;;;;;5055355;28;20370;-75
2021/09/02 04:22:40;;;;;;;14.60;6.78;;;;;;;;;;5055366;28;20036;-77
2021/09/02 04:25:05;;;;;;;15.93;8.13;;;;;;;;;;5055400;28;20089;-75
2021/09/02 04:27:31;;;;;;;15.05;7.38;;;;;;;;;;5055284;28;20025;-75
2021/09/02 04:29:56;;;;;;;12.70;6.45;;;;;;;;;;5055341;28;20036;-75
2021/09/02 04:32:21;;;;;;;15.35;6.65;;;;;;;;;;5055272;28;20061;-75
2021/09/02 04:34:46;;;;;;;16.27;5.85;;;;;;;;;;5054808;28;20025;-75
2021/09/02 04:37:12;;;;;;;15.10;6.00;;;;;;;;;;5054995;28;20073;-75
2021/09/02 04:39:37;;;;;;;15.05;6.05;;;;;;;;;;5054971;28;20106;-75
2021/09/02 04:42:02;;;;;;;14.10;5.10;;;;;;;;;;5054961;28;20103;-75
2021/09/02 04:44:27;;;;;;;11.18;4.70;;;;;;;;;;5054839;28;20021;-75
2021/09/02 04:46:53;;;;;;;9.32;4.32;;;;;;;;;;5054876;28;20021;-75
2021/09/02 04:49:18;;;;;;;12.70;4.50;;;;;;;;;;5054837;28;20060;-75
2021/09/02 04:51:43;;;;;;;6.82;4.07;;;;;;;;;;5054753;28;20071;-75
2021/09/02 04:54:09;;;;;;;10.60;4.38;;;;;;;;;;5055039;28;20060;-75
2021/09/02 04:56:34;;;;;;;9.60;4.57;;;;;;;;;;5054669;28;20029;-75
2021/09/02 04:58:59;;;;;;;8.25;4.28;;;;;;;;;;5054355;28;20039;-75
2021/09/02 05:01:24;;;;;;;9.23;3.58;;;;;;;;;;5054666;28;20120;-75
2021/09/02 05:03:50;;;;;;;8.93;3.65;;;;;;;;;;5054487;28;20075;-75
2021/09/02 05:06:15;;;;;;;7.15;3.42;;;;;;;;;;5054516;28;20063;-75
2021/09/02 05:08:40;;;;;;;9.48;3.65;;;;;;;;;;5054514;28;20389;-75
2021/09/02 05:11:05;;;;;;;10.13;3.78;;;;;;;;;;5054399;28;20027;-75
2021/09/02 05:13:31;;;;;;;9.10;3.42;;;;;;;;;;5054113;28;20094;-75
2021/09/02 05:15:56;;;;;;;8.50;4.05;;;;;;;;;;5053670;28;20037;-75
2021/09/02 05:18:21;;;;;;;8.75;3.10;;;;;;;;;;5054120;28;20397;-75
2021/09/02 05:20:46;;;;;;;6.82;2.78;;;;;;;;;;5054303;28;20033;-75
2021/09/02 05:23:12;;;;;;;8.73;2.95;;;;;;;;;;5054206;28;20043;-75
2021/09/02 05:25:37;;;;;;;8.52;3.70;;;;;;;;;;5054091;28;20096;-75
2021/09/02 05:28:02;;;;;;;11.65;3.25;;;;;;;;;;5053813;28;20043;-75
2021/09/02 05:30:27;;;;;;;6.45;3.10;;;;;;;;;;5054033;28;20116;-75
2021/09/02 05:32:53;;;;;;;6.75;3.15;;;;;;;;;;5054282;28;20052;-75
2021/09/02 05:35:18;;;;;;;11.18;3.50;;;;;;;;;;5053651;28;20025;-75
2021/09/02 05:37:43;;;;;;;6.45;3.10;;;;;;;;;;5053851;28;20112;-75
2021/09/02 05:40:09;;;;;;;7.85;3.30;;;;;;;;;;5053787;28;20024;-75
2021/09/02 05:42:34;;;;;;;8.07;3.28;;;;;;;;;;5035901;28;20435;-75
2021/09/02 05:45:00;;;;;;;12.35;3.28;;;;;;;;;;5053821;28;20033;-75
2021/09/02 05:47:25;;;;;;;6.70;2.90;;;;;;;;;;5053792;28;20029;-75
2021/09/02 05:49:50;;;;;;;9.90;3.92;;;;;;;;;;5053770;28;20021;-75
2021/09/02 05:52:16;;;;;;;7.85;3.10;;;;;;;;;;5053345;28;20032;-75
2021/09/02 05:54:41;;;;;;;9.48;3.05;;;;;;;;;;5053641;28;20033;-75
2021/09/02 05:57:06;;;;;;;7.53;3.17;;;;;;;;;;5053531;28;20037;-75
2021/09/02 05:59:32;;;;;;;7.43;3.20;;;;;;;;;;5053620;28;20029;-74
2021/09/02 06:01:57;;;;;;;9.93;3.00;;;;;;;;;;5053532;28;20449;-75
2021/09/02 06:04:22;;;;;;;8.93;3.05;;;;;;;;;;5053584;28;20043;-75
2021/09/02 06:06:47;;;;;;;8.35;3.05;;;;;;;;;;5035260;28;20039;-75
2021/09/02 06:09:13;;;;;;;10.80;2.95;;;;;;;;;;5053521;28;20075;-75
2021/09/02 06:11:39;;;;;;;12.30;3.30;;;;;;;;;;5053424;28;20024;-75
2021/09/02 06:14:04;;;;;;;9.02;3.17;;;;;;;;;;5053445;28;20116;-75
2021/09/02 06:16:29;;;;;;;13.50;3.33;;;;;;;;;;5052961;28;20048;-76
2021/09/02 06:18:55;;;;;;;8.85;3.10;;;;;;;;;;5035419;28;20032;-75
2021/09/02 06:21:20;;;;;;;8.70;3.00;;;;;;;;;;5053172;28;20531;-75
2021/09/02 06:23:45;;;;;;;12.65;3.60;;;;;;;;;;5053187;28;20021;-75
2021/09/02 06:26:11;;;;;;;9.43;3.47;;;;;;;;;;5053189;28;20056;-74
2021/09/02 06:28:36;;;;;;;7.65;2.78;;;;;;;;;;5053078;28;20033;-76
2021/09/02 06:31:02;;;;;;;8.27;3.42;;;;;;;;;;5053116;28;20049;-75
2021/09/02 06:33:27;;;;;;;13.77;3.75;;;;;;;;;;5053148;28;20454;-75
2021/09/02 06:35:52;;;;;;;7.80;2.90;;;;;;;;;;5053427;28;20400;-76
2021/09/02 06:38:17;;;;;;;7.75;3.10;;;;;;;;;;5053048;28;20474;-75
2021/09/02 06:40:44;;;;;;;11.88;3.10;;;;;;;;;;5052992;28;20037;-75
2021/09/02 06:43:09;;;;;;;10.05;3.45;;;;;;;;;;5052573;28;20043;-75
2021/09/02 06:45:34;;;;;;;10.77;2.75;;;;;;;;;;5053052;28;20104;-75
2021/09/02 06:48:00;;;;;;;7.97;3.13;;;;;;;;;;5053086;28;20113;-75
2021/09/02 06:50:25;;;;;;;13.57;2.78;;;;;;;;;;5053102;28;20048;-74
2021/09/02 06:52:51;;;;;;;6.57;2.50;;;;;;;;;;5052963;28;20056;-75
2021/09/02 06:55:16;;;;;;;3.35;1.90;;;;;;;;;;5052998;28;20120;-75
2021/09/02 06:57:41;;;;;;;7.63;2.78;;;;;;;;;;5052806;28;20043;-74
2021/09/02 07:00:07;;;;;;;8.45;2.55;;;;;;;;;;5052888;28;20021;-73
2021/09/02 07:02:34;;;;;;;10.55;3.15;;;;;;;;;;5052907;28;20029;-74
2021/09/02 07:04:59;;;;;;;8.52;2.95;;;;;;;;;;5052901;28;20124;-73
2021/09/02 07:07:24;;;;;;;4.75;2.60;;;;;;;;;;5052454;28;20100;-75
2021/09/02 07:09:50;;;;;;;7.20;2.58;;;;;;;;;;5052819;28;20059;-74
2021/09/02 07:12:15;;;;;;;6.63;2.70;;;;;;;;;;5052848;28;20082;-74
2021/09/02 07:14:40;;;;;;;7.85;2.55;;;;;;;;;;5052793;28;20025;-73
2021/09/02 07:17:06;;;;;;;5.97;2.88;;;;;;;;;;5052667;28;20482;-74
2021/09/02 07:19:31;;;;;;;11.00;3.35;;;;;;;;;;5052498;28;20099;-76
2021/09/02 07:21:57;;;;;;;7.05;2.58;;;;;;;;;;5052708;28;20021;-74
2021/09/02 07:24:22;;;;;;;18.63;3.30;;;;;;;;;;5052705;28;20389;-74
2021/09/02 07:26:48;;;;;;;8.43;3.58;;;;;;;;;;5034889;28;20116;-74
2021/09/02 07:29:13;;;;;;;7.82;3.00;;;;;;;;;;5050417;28;20017;-74
2021/09/02 07:31:41;;;;;;;6.85;3.20;;;;;;;;;;5052053;28;20044;-74
2021/09/02 07:34:06;;;;;;;9.27;3.30;;;;;;;;;;5052058;28;20112;-74
2021/09/02 07:36:32;;;;;;;11.82;4.38;;;;;;;;;;5052270;28;20060;-76
2021/09/02 07:38:57;;;;;;;10.35;4.00;;;;;;;;;;5051747;28;20452;-74
2021/09/02 07:41:22;;;;;;;9.57;4.40;;;;;;;;;;5055578;28;20456;-74
2021/09/02 07:43:48;;;;;;;11.77;4.50;;;;;;;;;;5054825;28;20465;-74
2021/09/02 07:46:13;;;;;;;13.07;4.25;;;;;;;;;;5055683;28;20031;-74
2021/09/02 07:48:41;;;;;;;13.23;4.68;;;;;;;;;;5055955;28;20465;-74
2021/09/02 07:51:06;;;;;;;10.88;4.82;;;;;;;;;;5055789;28;20017;-75
2021/09/02 07:53:31;;;;;;;11.45;4.43;;;;;;;;;;5038931;28;20036;-74
2021/09/02 07:55:58;;;;;;;12.38;4.40;;;;;;;;;;5038587;28;20037;-74
2021/09/02 07:58:23;;;;;;;18.98;4.57;;;;;;;;;;5050599;28;20044;-74
2021/09/02 08:00:48;;;;;;;12.05;4.90;;;;;;;;;;5051675;28;20021;-75
2021/09/02 08:03:14;;;;;;;11.95;4.78;;;;;;;;;;5051807;28;20127;-74
2021/09/02 08:05:39;;;;;;;11.63;5.30;;;;;;;;;;5051815;28;20149;-75
2021/09/02 08:08:04;;;;;;;10.55;4.65;;;;;;;;;;5051801;28;20033;-74
2021/09/02 08:10:30;;;;;;;12.88;5.13;;;;;;;;;;5051684;28;20532;-75
2021/09/02 08:12:55;;;;;;;14.30;5.03;;;;;;;;;;5051554;28;20021;-74
2021/09/02 08:15:21;;;;;;;12.95;4.72;;;;;;;;;;5052538;28;20025;-74
2021/09/02 08:17:47;;;;;;;13.10;4.50;;;;;;;;;;5051102;28;20393;-75
2021/09/02 08:20:13;;;;;;;14.32;4.95;;;;;;;;;;5051821;28;20025;-75
2021/09/02 08:22:39;;;;;;;12.80;4.60;;;;;;;;;;5050686;28;20496;-75
2021/09/02 08:25:05;;;;;;;10.45;4.72;;;;;;;;;;5051284;28;20037;-74
2021/09/02 08:27:31;;;;;;;14.05;4.82;;;;;;;;;;5051680;28;20404;-77
2021/09/02 08:29:56;;;;;;;12.82;5.30;;;;;;;;;;5051249;28;20043;-75
2021/09/02 08:32:21;;;;;;;12.15;4.85;;;;;;;;;;5051319;28;20119;-76
2021/09/02 08:34:46;;;;;;;10.88;4.80;;;;;;;;;;5051559;28;20060;-77
2021/09/02 08:37:12;;;;;;;11.88;5.07;;;;;;;;;;5050693;28;20393;-76
2021/09/02 08:39:37;;;;;;;20.33;4.95;;;;;;;;;;5051232;28;20033;-76
2021/09/02 08:42:03;;;;;;;8.23;3.95;;;;;;;;;;5051822;28;20032;-75
2021/09/02 08:44:29;;;;;;;9.27;4.50;;;;;;;;;;5050978;28;20025;-75
2021/09/02 08:46:55;;;;;;;12.80;5.00;;;;;;;;;;5051755;28;20087;-75
2021/09/02 08:49:21;;;;;;;9.45;4.55;;;;;;;;;;5051017;28;20535;-75
2021/09/02 08:51:47;;;;;;;15.23;4.82;;;;;;;;;;5049532;28;20091;-75
2021/09/02 08:54:13;;;;;;;12.60;4.18;;;;;;;;;;5050506;28;20473;-75
2021/09/02 08:56:38;;;;;;;12.00;4.50;;;;;;;;;;5050515;28;20032;-74
2021/09/02 08:59:03;;;;;;;5.13;3.13;;;;;;;;;;5050687;28;20025;-76
2021/09/02 09:01:28;;;;;;;9.95;3.63;;;;;;;;;;5051124;28;20029;-74
2021/09/02 09:03:54;;;;;;;11.05;3.70;;;;;;;;;;5032501;28;20025;-75
2021/09/02 09:06:27;;;;;;;11.40;4.28;;;;;;;;;;5050413;28;20048;-79
2021/09/02 09:08:53;;;;;;;8.10;3.95;;;;;;;;;;5050617;28;20040;-75
2021/09/02 09:11:29;;;;;;;9.27;3.67;;;;;;;;;;5047863;28;20021;-75
2021/09/02 09:14:03;;;;;;;8.40;3.45;;;;;;;;;;5049636;28;20381;-75
2021/09/02 09:16:45;;;;;;;8.77;3.97;;;;;;;;;;5049744;28;20029;-74
2021/09/02 09:19:31;;;;;;;7.90;4.22;;;;;;;;;;5049739;28;20108;-75
2021/09/02 09:21:59;;;;;;;11.38;3.50;;;;;;;;;;5050247;28;20068;-78
2021/09/02 09:24:39;;;;;;;6.78;3.30;;;;;;;;;;5050239;28;20401;-75
2021/09/02 09:27:08;;;;;;;10.98;3.75;;;;;;;;;;5049315;28;20393;-76
2021/09/02 09:29:33;;;;;;;9.07;4.20;;;;;;;;;;5049958;28;20033;-76
2021/09/02 09:32:10;;;;;;;9.30;3.88;;;;;;;;;;5050295;28;20101;-75
2021/09/02 09:34:35;;;;;;;10.55;3.33;;;;;;;;;;5049786;28;20079;-76
2021/09/02 09:37:07;;;;;;;10.43;3.50;;;;;;;;;;5049758;28;20512;-75
2021/09/02 09:39:36;;;;;;;9.35;4.15;;;;;;;;;;5050228;28;20021;-75
2021/09/02 09:42:03;;;;;;;11.50;3.60;;;;;;;;;;5050400;28;20108;-75
2021/09/02 09:44:28;;;;;;;9.70;3.55;;;;;;;;;;5049511;28;20033;-76
2021/09/02 09:47:07;;;;;;;8.73;3.03;;;;;;;;;;5049888;28;20036;-75
2021/09/02 09:49:45;;;;;;;6.68;3.22;;;;;;;;;;5050065;28;20473;-74
2021/09/02 09:52:21;;;;;;;8.77;3.38;;;;;;;;;;5050481;28;20092;-78
2021/09/02 09:54:47;;;;;;;6.70;3.20;;;;;;;;;;5049388;28;20029;-75
2021/09/02 09:57:13;;;;;;;10.48;3.35;;;;;;;;;;5047902;28;20526;-75
2021/09/02 09:59:42;;;;;;;7.05;3.03;;;;;;;;;;5047308;28;20038;-75
2021/09/02 10:02:08;;;;;;;7.40;3.67;;;;;;;;;;5049298;28;20029;-75
2021/09/02 10:04:34;;;;;;;8.23;3.25;;;;;;;;;;5049312;28;20040;-75
2021/09/02 10:07:01;;;;;;;8.55;3.50;;;;;;;;;;5049575;28;20365;-75
2021/09/02 10:09:27;;;;;;;8.40;3.60;;;;;;;;;;5049377;28;20032;-75
2021/09/02 10:11:53;;;;;;;10.13;3.65;;;;;;;;;;5049062;28;20040;-77
2021/09/02 10:14:18;;;;;;;11.27;3.95;;;;;;;;;;5049540;28;20361;-76
2021/09/02 10:16:44;;;;;;;9.15;3.70;;;;;;;;;;5045052;28;20409;-75
2021/09/02 10:19:09;;;;;;;9.32;4.22;;;;;;;;;;5047884;28;20063;-77
2021/09/02 10:21:34;;;;;;;14.30;5.30;;;;;;;;;;5048067;28;20135;-77
2021/09/02 10:24:36;;;;;;;11.18;3.67;;;;;;;;;;5047770;28;20075;-75
2021/09/02 10:27:22;;;;;;;11.20;4.13;;;;;;;;;;4948147;29;20489;-75
2021/09/02 10:29:48;;;;;;;9.68;4.22;;;;;;;;;;5039717;28;20071;-75
2021/09/02 10:32:22;;;;;;;11.52;4.30;;;;;;;;;;5048863;28;20080;-74
2021/09/02 10:34:47;;;;;;;8.93;4.53;;;;;;;;;;5048745;28;20051;-75
2021/09/02 10:37:33;;;;;;;8.15;4.57;;;;;;;;;;5048565;28;20056;-75
2021/09/02 10:39:58;;;;;;;10.23;4.32;;;;;;;;;;5031612;28;20106;-75
2021/09/02 10:42:46;;;;;;;6.60;3.22;;;;;;;;;;5049296;28;20033;-75
2021/09/02 10:47:52;;;;;;;8.15;3.30;;;;;;;;;;5048664;28;20385;-76
2021/09/02 10:50:20;;;;;;;9.70;3.33;;;;;;;;;;5049075;28;20037;-76
2021/09/02 10:52:46;;;;;;;5.72;2.83;;;;;;;;;;5048859;28;20059;-76
2021/09/02 10:55:26;;;;;;;7.72;2.90;;;;;;;;;;5048919;28;20053;-75
2021/09/02 10:57:52;;;;;;;4.18;2.60;;;;;;;;;;5048460;28;20040;-76
2021/09/02 11:00:35;;;;;;;6.88;3.25;;;;;;;;;;5048666;28;20685;-75
2021/09/02 11:03:17;;;;;;;6.00;2.70;;;;;;;;;;5049010;28;20633;-76
2021/09/02 11:05:43;;;;;;;9.52;3.05;;;;;;;;;;5048676;28;20193;-76
2021/09/02 11:08:09;;;;;;;6.00;2.65;;;;;;;;;;5048552;28;20040;-77
2021/09/02 11:10:34;;;;;;;5.20;2.65;;;;;;;;;;5048699;28;20021;-76
2021/09/02 11:13:04;;;;;;;6.18;2.65;;;;;;;;;;5048120;28;20029;-77
2021/09/02 11:15:30;;;;;;;3.53;2.13;;;;;;;;;;5032955;28;20378;-77
2021/09/02 11:17:56;;;;;;;6.25;3.10;;;;;;;;;;5052329;28;20029;-76
2021/09/02 11:20:23;;;;;;;6.15;2.90;;;;;;;;;;5052102;28;20025;-76
2021/09/02 11:22:48;;;;;;;8.60;2.95;;;;;;;;;;5052692;28;20036;-75
2021/09/02 11:25:14;;;;;;;8.60;3.80;;;;;;;;;;5051562;28;20032;-77
2021/09/02 11:27:40;;;;;;;6.22;3.53;;;;;;;;;;5051901;28;20033;-77
2021/09/02 11:30:14;;;;;;;8.40;3.58;;;;;;;;;;5052223;28;20029;-76
2021/09/02 11:32:39;;;;;;;7.00;4.05;;;;;;;;;;5051980;28;20094;-76
2021/09/02 11:35:05;;;;;;;9.02;4.03;;;;;;;;;;5034159;28;20037;-77
2021/09/02 11:37:38;;;;;;;9.65;4.50;;;;;;;;;;5052208;28;20466;-77
2021/09/02 11:40:03;;;;;;;10.40;4.43;;;;;;;;;;5051242;28;20797;-76
2021/09/02 11:42:31;;;;;;;8.50;4.40;;;;;;;;;;5052913;28;20037;-76
2021/09/02 11:44:58;;;;;;;11.35;4.45;;;;;;;;;;5051321;28;20024;-76
2021/09/02 11:47:23;;;;;;;6.75;4.38;;;;;;;;;;5051670;28;20108;-76
2021/09/02 11:49:57;;;;;;;6.93;4.05;;;;;;;;;;5051817;28;20442;-76
2021/09/02 11:52:22;;;;;;;8.88;4.07;;;;;;;;;;5052187;28;20032;-77
2021/09/02 11:54:48;;;;;;;9.15;4.15;;;;;;;;;;5051761;28;20037;-77
2021/09/02 11:57:23;;;;;;;6.55;4.05;;;;;;;;;;5052176;28;20067;-77
2021/09/02 11:59:49;;;;;;;9.25;3.78;;;;;;;;;;5051862;28;20025;-77
2021/09/02 12:02:14;;;;;;;9.77;3.80;;;;;;;;;;5051574;28;20443;-77
2021/09/02 12:04:40;;;;;;;5.70;3.10;;;;;;;;;;5052982;28;20021;-77
2021/09/02 12:07:05;;;;;;;6.70;3.75;;;;;;;;;;5051818;28;20036;-77
2021/09/02 12:09:32;;;;;;;9.05;3.60;;;;;;;;;;5052061;28;20405;-77
2021/09/02 12:11:57;;;;;;;7.72;3.42;;;;;;;;;;5051509;28;20109;-76
2021/09/02 12:14:24;;;;;;;10.70;4.18;;;;;;;;;;5050998;28;20195;-77
2021/09/02 12:17:06;;;;;;;5.95;3.40;;;;;;;;;;5051741;28;20123;-76
2021/09/02 12:19:49;;;;;;;5.50;3.42;;;;;;;;;;5038004;28;20425;-76
2021/09/02 12:22:14;;;;;;;10.60;3.53;;;;;;;;;;5050804;28;20379;-77
2021/09/02 12:24:40;;;;;;;17.17;4.47;;;;;;;;;;5051554;28;20116;-76
2021/09/02 12:27:05;;;;;;;9.73;4.10;;;;;;;;;;5051296;28;20043;-76
2021/09/02 12:29:30;;;;;;;5.40;3.25;;;;;;;;;;5051335;28;20078;-76
2021/09/02 12:31:56;;;;;;;7.10;3.58;;;;;;;;;;5052235;28;20377;-77
2021/09/02 12:34:26;;;;;;;7.72;3.42;;;;;;;;;;5051175;28;20032;-76
2021/09/02 12:37:01;;;;;;;5.05;3.30;;;;;;;;;;5050578;28;20033;-77
2021/09/02 12:39:27;;;;;;;10.02;3.78;;;;;;;;;;5052076;28;20123;-76
2021/09/02 12:41:54;;;;;;;7.57;3.80;;;;;;;;;;5051046;28;20033;-76
2021/09/02 12:44:30;;;;;;;7.47;3.63;;;;;;;;;;5043783;28;20472;-77
2021/09/02 12:47:00;;;;;;;9.00;4.40;;;;;;;;;;5046944;28;20040;-78
2021/09/02 12:49:45;;;;;;;12.82;3.95;;;;;;;;;;5050474;28;20107;-77
2021/09/02 12:52:10;;;;;;;6.85;4.07;;;;;;;;;;5031862;28;20435;-76
2021/09/02 12:54:54;;;;;;;8.63;4.28;;;;;;;;;;5041001;28;20036;-79
2021/09/02 12:57:20;;;;;;;12.18;4.97;;;;;;;;;;5046842;28;20036;-76
2021/09/02 12:59:45;;;;;;;9.52;4.63;;;;;;;;;;5049715;28;20473;-77
2021/09/02 13:02:10;;;;;;;10.23;5.07;;;;;;;;;;5049157;28;20036;-76
2021/09/02 13:04:35;;;;;;;12.15;5.38;;;;;;;;;;5048607;28;20056;-76
2021/09/02 13:07:02;;;;;;;10.30;5.22;;;;;;;;;;5049119;28;20404;-77
2021/09/02 13:09:27;;;;;;;11.60;6.15;;;;;;;;;;5049114;28;20074;-76
2021/09/02 13:11:53;;;;;;;14.75;5.47;;;;;;;;;;5049423;28;20021;-76
2021/09/02 13:14:18;;;;;;;8.85;4.88;;;;;;;;;;5046770;28;20434;-79
2021/09/02 13:16:46;;;;;;;15.10;5.57;;;;;;;;;;5048044;28;20017;-76
2021/09/02 13:19:12;;;;;;;14.77;5.18;;;;;;;;;;5049697;28;20021;-75
2021/09/02 13:21:37;;;;;;;11.05;5.43;;;;;;;;;;5050008;28;20037;-77
2021/09/02 13:24:02;;;;;;;8.07;4.65;;;;;;;;;;5049563;28;20037;-76
2021/09/02 13:26:28;;;;;;;12.82;5.15;;;;;;;;;;5049463;28;20021;-77
2021/09/02 13:28:53;;;;;;;14.63;5.25;;;;;;;;;;5049034;28;20056;-76
2021/09/02 13:31:18;;;;;;;16.33;5.65;;;;;;;;;;5049324;28;20041;-76
2021/09/02 13:33:44;;;;;;;8.18;5.03;;;;;;;;;;5049585;28;20029;-76
2021/09/02 13:36:09;;;;;;;10.77;5.20;;;;;;;;;;5047124;28;20056;-76
2021/09/02 13:38:36;;;;;;;9.80;5.30;;;;;;;;;;5046355;28;20029;-76
2021/09/02 13:41:02;;;;;;;10.32;5.13;;;;;;;;;;5048171;28;20032;-76
2021/09/02 13:43:27;;;;;;;10.90;5.95;;;;;;;;;;5049360;28;20029;-76
2021/09/02 13:45:52;;;;;;;9.45;5.75;;;;;;;;;;5049219;28;20021;-75
2021/09/02 13:48:18;;;;;;;9.23;5.45;;;;;;;;;;5049842;28;20488;-75
2021/09/02 13:50:43;;;;;;;11.15;5.68;;;;;;;;;;5050617;28;20469;-77
2021/09/02 13:53:09;;;;;;;12.85;5.07;;;;;;;;;;5050617;28;20024;-76
2021/09/02 13:55:34;;;;;;;9.23;5.10;;;;;;;;;;5050966;28;20086;-76
2021/09/02 13:57:59;;;;;;;10.23;5.35;;;;;;;;;;5050439;28;20045;-77
2021/09/02 14:00:25;;;;;;;9.43;5.45;;;;;;;;;;5050262;28;20381;-75
2021/09/02 14:02:50;;;;;;;9.18;5.45;;;;;;;;;;5050524;28;20086;-75
2021/09/02 14:05:15;;;;;;;13.95;5.05;;;;;;;;;;5050327;28;20465;-76
2021/09/02 14:07:41;;;;;;;8.00;4.40;;;;;;;;;;5050730;28;20028;-76
2021/09/02 14:10:06;;;;;;;12.90;4.82;;;;;;;;;;5049920;28;20025;-76
2021/09/02 14:12:31;;;;;;;18.23;5.72;;;;;;;;;;5050823;28;20029;-76
2021/09/02 14:14:57;;;;;;;7.85;4.72;;;;;;;;;;5050248;28;20021;-76
2021/09/02 14:17:22;;;;;;;11.15;5.45;;;;;;;;;;5050111;28;20479;-77
2021/09/02 14:19:47;;;;;;;9.60;5.05;;;;;;;;;;5050886;28;20040;-76
2021/09/02 14:22:12;;;;;;;14.73;4.95;;;;;;;;;;5049736;28;20361;-76
2021/09/02 14:24:38;;;;;;;12.32;4.82;;;;;;;;;;5050252;28;20032;-76
2021/09/02 14:27:03;;;;;;;11.18;4.78;;;;;;;;;;5050184;28;20119;-76
2021/09/02 14:29:28;;;;;;;9.23;5.13;;;;;;;;;;5049833;28;20401;-76
2021/09/02 14:31:53;;;;;;;12.38;4.93;;;;;;;;;;5050770;28;20048;-75
2021/09/02 14:34:19;;;;;;;14.40;5.70;;;;;;;;;;5049861;28;20385;-75